ロンドン/ヒースロー の空港の天気 - METARとTAF

ロンドン・ヒースロー空港 ( EGLL / LHR ) - イギリス ロンドン
飛行場実況気象(Metar)
観測時間05/26 23:20 BST (05/26 22:20 UTC)
風向・風速東 5m/s
視程10km以上
天気現象
なし
気温20℃
湿度60%
気圧1035hPa
METAREGLL 262220Z AUTO 10009KT 9999 NCD 20/12 Q1035 NOSIG
過去の天気等 Google飛行場航空写真 Wunderground天気予報

過去48時間のMETAR

飛行場予報(TAF)
発表時間: 5/26 18:01 BST (5/26 17:01 UTC)
予報対象時間: 26日19時 BST ~ 28日1時 BST
風向・風速北 2m/s
視程10km以上
少しの雲 雲底高度 1370m
27日20時 BST ~ 27日23時 BST に徐々に
風向・風速東 5m/s
TAF EGLL 261701Z 2618/2724 35004KT 9999 FEW045
BECMG 2719/2722 08010KT